sensor_id;sensor_type;location;lat;lon;timestamp;P1;durP1;ratioP1;P2;durP2;ratioP2
52035;SDS011;38046;49.448;32.074;2022-10-14T00:01:06;4.90;;;2.90;;
52035;SDS011;38046;49.448;32.074;2022-10-14T00:03:34;5.50;;;3.25;;
52035;SDS011;38046;49.448;32.074;2022-10-14T00:06:08;4.75;;;3.30;;
52035;SDS011;38046;49.448;32.074;2022-10-14T00:08:36;5.22;;;3.63;;
52035;SDS011;38046;49.448;32.074;2022-10-14T00:11:02;4.60;;;3.22;;
52035;SDS011;38046;49.448;32.074;2022-10-14T00:13:29;4.40;;;2.95;;
52035;SDS011;38046;49.448;32.074;2022-10-14T00:15:55;4.40;;;3.20;;
52035;SDS011;38046;49.448;32.074;2022-10-14T00:18:20;4.97;;;3.28;;
52035;SDS011;38046;49.448;32.074;2022-10-14T00:20:53;4.50;;;2.90;;
52035;SDS011;38046;49.448;32.074;2022-10-14T00:23:19;5.25;;;3.20;;
52035;SDS011;38046;49.448;32.074;2022-10-14T00:25:45;4.72;;;3.00;;
52035;SDS011;38046;49.448;32.074;2022-10-14T00:28:11;4.75;;;3.22;;
52035;SDS011;38046;49.448;32.074;2022-10-14T00:30:36;4.32;;;3.00;;
52035;SDS011;38046;49.448;32.074;2022-10-14T00:33:02;4.38;;;3.30;;
52035;SDS011;38046;49.448;32.074;2022-10-14T00:35:28;5.88;;;3.50;;
52035;SDS011;38046;49.448;32.074;2022-10-14T00:37:56;5.78;;;3.28;;
52035;SDS011;38046;49.448;32.074;2022-10-14T00:40:22;5.00;;;3.40;;
52035;SDS011;38046;49.448;32.074;2022-10-14T00:42:47;5.93;;;3.70;;
52035;SDS011;38046;49.448;32.074;2022-10-14T00:45:15;5.15;;;3.03;;
52035;SDS011;38046;49.448;32.074;2022-10-14T00:47:45;3.90;;;2.78;;
52035;SDS011;38046;49.448;32.074;2022-10-14T00:50:11;5.32;;;3.42;;
52035;SDS011;38046;49.448;32.074;2022-10-14T00:52:38;4.30;;;2.80;;
52035;SDS011;38046;49.448;32.074;2022-10-14T00:55:05;5.40;;;3.42;;
52035;SDS011;38046;49.448;32.074;2022-10-14T00:57:36;5.35;;;3.90;;
52035;SDS011;38046;49.448;32.074;2022-10-14T01:00:05;6.18;;;3.42;;
52035;SDS011;38046;49.448;32.074;2022-10-14T01:02:36;5.85;;;3.55;;
52035;SDS011;38046;49.448;32.074;2022-10-14T01:05:02;5.70;;;3.30;;
52035;SDS011;38046;49.448;32.074;2022-10-14T01:10:23;4.47;;;3.35;;
52035;SDS011;38046;49.448;32.074;2022-10-14T01:16:15;4.32;;;3.42;;
52035;SDS011;38046;49.448;32.074;2022-10-14T01:21:41;4.50;;;2.90;;
52035;SDS011;38046;49.448;32.074;2022-10-14T01:24:17;4.72;;;3.10;;
52035;SDS011;38046;49.448;32.074;2022-10-14T01:30:16;5.63;;;3.45;;
52035;SDS011;38046;49.448;32.074;2022-10-14T01:37:51;4.40;;;3.38;;
52035;SDS011;38046;49.448;32.074;2022-10-14T01:40:29;4.05;;;3.25;;
52035;SDS011;38046;49.448;32.074;2022-10-14T01:42:56;5.78;;;3.55;;
52035;SDS011;38046;49.448;32.074;2022-10-14T01:45:24;4.57;;;2.95;;
52035;SDS011;38046;49.448;32.074;2022-10-14T01:47:52;4.47;;;3.10;;
52035;SDS011;38046;49.448;32.074;2022-10-14T01:50:20;4.85;;;3.40;;
52035;SDS011;38046;49.448;32.074;2022-10-14T01:52:49;6.25;;;3.55;;
52035;SDS011;38046;49.448;32.074;2022-10-14T01:55:37;5.13;;;3.45;;
52035;SDS011;38046;49.448;32.074;2022-10-14T01:58:07;4.57;;;3.00;;
52035;SDS011;38046;49.448;32.074;2022-10-14T02:00:34;5.07;;;3.20;;
52035;SDS011;38046;49.448;32.074;2022-10-14T02:03:00;4.68;;;3.30;;
52035;SDS011;38046;49.448;32.074;2022-10-14T02:08:06;5.47;;;3.42;;
52035;SDS011;38046;49.448;32.074;2022-10-14T02:16:07;3.53;;;2.80;;
52035;SDS011;38046;49.448;32.074;2022-10-14T02:21:26;5.85;;;3.22;;
52035;SDS011;38046;49.448;32.074;2022-10-14T02:26:47;4.22;;;3.20;;
52035;SDS011;38046;49.448;32.074;2022-10-14T02:29:16;5.22;;;3.38;;
52035;SDS011;38046;49.448;32.074;2022-10-14T02:31:43;4.18;;;3.10;;
52035;SDS011;38046;49.448;32.074;2022-10-14T02:34:10;6.63;;;3.08;;
52035;SDS011;38046;49.448;32.074;2022-10-14T02:36:38;3.30;;;2.75;;
52035;SDS011;38046;49.448;32.074;2022-10-14T02:39:06;3.97;;;2.90;;
52035;SDS011;38046;49.448;32.074;2022-10-14T02:41:35;5.63;;;3.10;;
52035;SDS011;38046;49.448;32.074;2022-10-14T02:44:03;3.95;;;2.72;;
52035;SDS011;38046;49.448;32.074;2022-10-14T02:46:30;3.85;;;2.67;;
52035;SDS011;38046;49.448;32.074;2022-10-14T02:48:56;3.67;;;2.60;;
52035;SDS011;38046;49.448;32.074;2022-10-14T02:51:22;4.13;;;2.90;;
52035;SDS011;38046;49.448;32.074;2022-10-14T02:53:48;5.82;;;3.55;;
52035;SDS011;38046;49.448;32.074;2022-10-14T02:56:14;4.45;;;3.33;;
52035;SDS011;38046;49.448;32.074;2022-10-14T02:58:40;3.78;;;2.80;;
52035;SDS011;38046;49.448;32.074;2022-10-14T03:01:06;5.68;;;3.10;;
52035;SDS011;38046;49.448;32.074;2022-10-14T03:03:32;4.22;;;3.08;;
52035;SDS011;38046;49.448;32.074;2022-10-14T03:05:57;5.68;;;3.30;;
52035;SDS011;38046;49.448;32.074;2022-10-14T03:08:23;3.55;;;2.80;;
52035;SDS011;38046;49.448;32.074;2022-10-14T03:10:49;3.53;;;2.70;;
52035;SDS011;38046;49.448;32.074;2022-10-14T03:13:14;3.65;;;2.83;;
52035;SDS011;38046;49.448;32.074;2022-10-14T03:15:40;3.60;;;2.75;;
52035;SDS011;38046;49.448;32.074;2022-10-14T03:18:06;3.42;;;2.80;;
52035;SDS011;38046;49.448;32.074;2022-10-14T03:20:31;3.72;;;3.03;;
52035;SDS011;38046;49.448;32.074;2022-10-14T03:22:57;3.65;;;2.70;;
52035;SDS011;38046;49.448;32.074;2022-10-14T03:25:22;2.80;;;2.50;;
52035;SDS011;38046;49.448;32.074;2022-10-14T03:27:49;3.50;;;2.45;;
52035;SDS011;38046;49.448;32.074;2022-10-14T03:30:14;4.15;;;2.90;;
52035;SDS011;38046;49.448;32.074;2022-10-14T03:32:40;3.60;;;2.65;;
52035;SDS011;38046;49.448;32.074;2022-10-14T03:35:06;5.55;;;2.80;;
52035;SDS011;38046;49.448;32.074;2022-10-14T03:37:32;3.50;;;3.00;;
52035;SDS011;38046;49.448;32.074;2022-10-14T03:39:58;3.63;;;2.53;;
52035;SDS011;38046;49.448;32.074;2022-10-14T03:42:23;3.58;;;2.85;;
52035;SDS011;38046;49.448;32.074;2022-10-14T03:44:49;3.38;;;2.40;;
52035;SDS011;38046;49.448;32.074;2022-10-14T03:47:15;3.67;;;2.90;;
52035;SDS011;38046;49.448;32.074;2022-10-14T03:49:40;5.07;;;3.05;;
52035;SDS011;38046;49.448;32.074;2022-10-14T03:52:06;3.92;;;3.05;;
52035;SDS011;38046;49.448;32.074;2022-10-14T03:54:32;4.03;;;3.30;;
52035;SDS011;38046;49.448;32.074;2022-10-14T03:56:57;3.63;;;2.83;;
52035;SDS011;38046;49.448;32.074;2022-10-14T03:59:23;5.18;;;3.50;;
52035;SDS011;38046;49.448;32.074;2022-10-14T04:01:49;4.55;;;3.38;;
52035;SDS011;38046;49.448;32.074;2022-10-14T04:04:14;6.03;;;3.60;;
52035;SDS011;38046;49.448;32.074;2022-10-14T04:06:40;5.85;;;3.17;;
52035;SDS011;38046;49.448;32.074;2022-10-14T04:09:05;4.75;;;3.55;;
52035;SDS011;38046;49.448;32.074;2022-10-14T04:11:31;4.20;;;3.20;;
52035;SDS011;38046;49.448;32.074;2022-10-14T04:13:57;4.45;;;3.40;;
52035;SDS011;38046;49.448;32.074;2022-10-14T04:16:23;6.68;;;3.70;;
52035;SDS011;38046;49.448;32.074;2022-10-14T04:18:49;3.58;;;2.67;;
52035;SDS011;38046;49.448;32.074;2022-10-14T04:21:15;4.10;;;3.00;;
52035;SDS011;38046;49.448;32.074;2022-10-14T04:23:40;3.78;;;2.67;;
52035;SDS011;38046;49.448;32.074;2022-10-14T04:26:06;3.42;;;2.97;;
52035;SDS011;38046;49.448;32.074;2022-10-14T04:28:34;3.88;;;3.00;;
52035;SDS011;38046;49.448;32.074;2022-10-14T04:31:00;4.50;;;3.05;;
52035;SDS011;38046;49.448;32.074;2022-10-14T04:33:26;3.00;;;2.70;;
52035;SDS011;38046;49.448;32.074;2022-10-14T04:35:58;3.05;;;2.63;;
52035;SDS011;38046;49.448;32.074;2022-10-14T04:38:26;3.15;;;2.47;;
52035;SDS011;38046;49.448;32.074;2022-10-14T04:40:52;3.95;;;2.83;;
52035;SDS011;38046;49.448;32.074;2022-10-14T04:43:17;3.38;;;2.80;;
52035;SDS011;38046;49.448;32.074;2022-10-14T04:45:43;2.88;;;2.47;;
52035;SDS011;38046;49.448;32.074;2022-10-14T04:48:09;2.95;;;2.40;;
52035;SDS011;38046;49.448;32.074;2022-10-14T04:50:35;3.38;;;2.60;;
52035;SDS011;38046;49.448;32.074;2022-10-14T04:53:01;3.33;;;2.60;;
52035;SDS011;38046;49.448;32.074;2022-10-14T04:55:26;4.13;;;2.63;;
52035;SDS011;38046;49.448;32.074;2022-10-14T04:57:52;4.32;;;3.15;;
52035;SDS011;38046;49.448;32.074;2022-10-14T05:00:18;4.10;;;3.10;;
52035;SDS011;38046;49.448;32.074;2022-10-14T05:02:44;3.22;;;2.60;;
52035;SDS011;38046;49.448;32.074;2022-10-14T05:05:09;3.60;;;2.70;;
52035;SDS011;38046;49.448;32.074;2022-10-14T05:07:35;3.10;;;2.70;;
52035;SDS011;38046;49.448;32.074;2022-10-14T05:10:01;4.07;;;2.83;;
52035;SDS011;38046;49.448;32.074;2022-10-14T05:12:28;3.53;;;2.85;;
52035;SDS011;38046;49.448;32.074;2022-10-14T05:14:55;2.80;;;2.55;;
52035;SDS011;38046;49.448;32.074;2022-10-14T05:17:20;2.88;;;2.33;;
52035;SDS011;38046;49.448;32.074;2022-10-14T05:19:46;3.55;;;2.45;;
52035;SDS011;38046;49.448;32.074;2022-10-14T05:22:12;3.55;;;2.70;;
52035;SDS011;38046;49.448;32.074;2022-10-14T05:24:37;3.10;;;2.80;;
52035;SDS011;38046;49.448;32.074;2022-10-14T05:27:03;3.78;;;2.80;;
52035;SDS011;38046;49.448;32.074;2022-10-14T05:29:29;3.95;;;2.67;;
52035;SDS011;38046;49.448;32.074;2022-10-14T05:31:54;4.10;;;2.58;;
52035;SDS011;38046;49.448;32.074;2022-10-14T05:34:20;3.45;;;2.80;;
52035;SDS011;38046;49.448;32.074;2022-10-14T05:36:46;4.05;;;2.60;;
52035;SDS011;38046;49.448;32.074;2022-10-14T05:39:12;2.80;;;2.40;;
52035;SDS011;38046;49.448;32.074;2022-10-14T05:41:38;3.05;;;2.67;;
52035;SDS011;38046;49.448;32.074;2022-10-14T05:44:03;3.67;;;2.75;;
52035;SDS011;38046;49.448;32.074;2022-10-14T05:46:30;2.65;;;2.40;;
52035;SDS011;38046;49.448;32.074;2022-10-14T05:48:56;4.03;;;2.78;;
52035;SDS011;38046;49.448;32.074;2022-10-14T05:51:22;2.78;;;2.50;;
52035;SDS011;38046;49.448;32.074;2022-10-14T05:53:48;3.78;;;2.70;;
52035;SDS011;38046;49.448;32.074;2022-10-14T05:56:13;3.10;;;2.40;;
52035;SDS011;38046;49.448;32.074;2022-10-14T05:58:39;3.13;;;2.47;;
52035;SDS011;38046;49.448;32.074;2022-10-14T06:01:06;4.60;;;2.35;;
52035;SDS011;38046;49.448;32.074;2022-10-14T06:03:34;3.78;;;2.40;;
52035;SDS011;38046;49.448;32.074;2022-10-14T06:06:00;2.10;;;1.90;;
52035;SDS011;38046;49.448;32.074;2022-10-14T06:08:26;3.97;;;2.42;;
52035;SDS011;38046;49.448;32.074;2022-10-14T06:10:52;2.75;;;2.40;;
52035;SDS011;38046;49.448;32.074;2022-10-14T06:13:19;3.83;;;2.67;;
52035;SDS011;38046;49.448;32.074;2022-10-14T06:15:46;4.10;;;2.47;;
52035;SDS011;38046;49.448;32.074;2022-10-14T06:18:11;3.20;;;2.63;;
52035;SDS011;38046;49.448;32.074;2022-10-14T06:20:37;3.75;;;2.60;;
52035;SDS011;38046;49.448;32.074;2022-10-14T06:23:03;2.67;;;2.30;;
52035;SDS011;38046;49.448;32.074;2022-10-14T06:25:29;2.90;;;2.28;;
52035;SDS011;38046;49.448;32.074;2022-10-14T06:27:58;1.90;;;1.80;;
52035;SDS011;38046;49.448;32.074;2022-10-14T06:32:52;2.20;;;2.00;;
52035;SDS011;38046;49.448;32.074;2022-10-14T06:35:18;2.00;;;1.80;;
52035;SDS011;38046;49.448;32.074;2022-10-14T06:37:44;2.08;;;1.77;;
52035;SDS011;38046;49.448;32.074;2022-10-14T06:40:10;2.10;;;1.88;;
52035;SDS011;38046;49.448;32.074;2022-10-14T06:42:36;1.30;;;1.20;;
52035;SDS011;38046;49.448;32.074;2022-10-14T06:45:02;1.92;;;1.70;;
52035;SDS011;38046;49.448;32.074;2022-10-14T06:47:30;1.90;;;1.80;;
52035;SDS011;38046;49.448;32.074;2022-10-14T06:49:57;1.80;;;1.70;;
52035;SDS011;38046;49.448;32.074;2022-10-14T06:52:22;1.60;;;1.50;;
52035;SDS011;38046;49.448;32.074;2022-10-14T06:54:48;1.88;;;1.55;;
52035;SDS011;38046;49.448;32.074;2022-10-14T06:57:14;1.60;;;1.50;;
52035;SDS011;38046;49.448;32.074;2022-10-14T06:59:40;1.60;;;1.45;;
52035;SDS011;38046;49.448;32.074;2022-10-14T07:02:05;1.80;;;1.70;;
52035;SDS011;38046;49.448;32.074;2022-10-14T07:04:31;1.70;;;1.40;;
52035;SDS011;38046;49.448;32.074;2022-10-14T07:06:56;1.83;;;1.48;;
52035;SDS011;38046;49.448;32.074;2022-10-14T07:09:22;1.55;;;1.45;;
52035;SDS011;38046;49.448;32.074;2022-10-14T07:11:49;1.50;;;1.40;;
52035;SDS011;38046;49.448;32.074;2022-10-14T07:14:14;1.58;;;1.48;;
52035;SDS011;38046;49.448;32.074;2022-10-14T07:16:42;1.60;;;1.40;;
52035;SDS011;38046;49.448;32.074;2022-10-14T07:19:08;1.52;;;1.42;;
52035;SDS011;38046;49.448;32.074;2022-10-14T07:21:33;1.73;;;1.63;;
52035;SDS011;38046;49.448;32.074;2022-10-14T07:23:59;1.50;;;1.40;;
52035;SDS011;38046;49.448;32.074;2022-10-14T07:26:25;1.55;;;1.45;;
52035;SDS011;38046;49.448;32.074;2022-10-14T07:28:50;1.60;;;1.50;;
52035;SDS011;38046;49.448;32.074;2022-10-14T07:31:16;1.73;;;1.63;;
52035;SDS011;38046;49.448;32.074;2022-10-14T07:33:42;1.42;;;1.27;;
52035;SDS011;38046;49.448;32.074;2022-10-14T07:36:09;1.38;;;1.27;;
52035;SDS011;38046;49.448;32.074;2022-10-14T07:38:36;1.58;;;1.38;;
52035;SDS011;38046;49.448;32.074;2022-10-14T07:41:06;1.30;;;1.20;;
52035;SDS011;38046;49.448;32.074;2022-10-14T07:43:40;1.52;;;1.42;;
52035;SDS011;38046;49.448;32.074;2022-10-14T07:46:07;1.90;;;1.67;;
52035;SDS011;38046;49.448;32.074;2022-10-14T07:48:33;1.42;;;1.33;;
52035;SDS011;38046;49.448;32.074;2022-10-14T07:50:59;1.40;;;1.30;;
52035;SDS011;38046;49.448;32.074;2022-10-14T07:53:25;1.50;;;1.40;;
52035;SDS011;38046;49.448;32.074;2022-10-14T07:55:51;1.50;;;1.38;;
52035;SDS011;38046;49.448;32.074;2022-10-14T07:58:21;1.30;;;1.20;;
52035;SDS011;38046;49.448;32.074;2022-10-14T08:00:48;1.70;;;1.23;;
52035;SDS011;38046;49.448;32.074;2022-10-14T08:03:15;1.45;;;1.35;;
52035;SDS011;38046;49.448;32.074;2022-10-14T08:05:41;0.95;;;0.93;;
52035;SDS011;38046;49.448;32.074;2022-10-14T08:08:07;1.20;;;1.10;;
52035;SDS011;38046;49.448;32.074;2022-10-14T08:10:33;1.23;;;1.15;;
52035;SDS011;38046;49.448;32.074;2022-10-14T08:12:59;1.23;;;1.13;;
52035;SDS011;38046;49.448;32.074;2022-10-14T08:15:26;1.35;;;1.10;;
52035;SDS011;38046;49.448;32.074;2022-10-14T08:17:54;1.52;;;1.42;;
52035;SDS011;38046;49.448;32.074;2022-10-14T08:20:20;1.38;;;1.27;;
52035;SDS011;38046;49.448;32.074;2022-10-14T08:22:45;1.48;;;1.35;;
52035;SDS011;38046;49.448;32.074;2022-10-14T08:25:11;1.10;;;1.10;;
52035;SDS011;38046;49.448;32.074;2022-10-14T08:27:37;1.40;;;1.30;;
52035;SDS011;38046;49.448;32.074;2022-10-14T08:30:03;1.42;;;1.27;;
52035;SDS011;38046;49.448;32.074;2022-10-14T08:32:29;1.75;;;1.35;;
52035;SDS011;38046;49.448;32.074;2022-10-14T08:34:55;1.13;;;1.13;;
52035;SDS011;38046;49.448;32.074;2022-10-14T08:37:21;1.20;;;1.20;;
52035;SDS011;38046;49.448;32.074;2022-10-14T08:39:47;1.40;;;1.30;;
52035;SDS011;38046;49.448;32.074;2022-10-14T08:42:26;1.17;;;1.17;;
52035;SDS011;38046;49.448;32.074;2022-10-14T08:45:14;1.42;;;1.33;;
52035;SDS011;38046;49.448;32.074;2022-10-14T08:47:44;1.38;;;1.33;;
52035;SDS011;38046;49.448;32.074;2022-10-14T08:53:09;2.15;;;1.48;;
52035;SDS011;38046;49.448;32.074;2022-10-14T08:55:42;1.25;;;1.15;;
52035;SDS011;38046;49.448;32.074;2022-10-14T09:00:42;1.58;;;1.48;;
52035;SDS011;38046;49.448;32.074;2022-10-14T09:03:26;1.48;;;1.30;;
52035;SDS011;38046;49.448;32.074;2022-10-14T09:06:01;1.27;;;1.17;;
52035;SDS011;38046;49.448;32.074;2022-10-14T09:08:33;1.15;;;1.05;;
52035;SDS011;38046;49.448;32.074;2022-10-14T09:11:06;2.30;;;1.55;;
52035;SDS011;38046;49.448;32.074;2022-10-14T09:13:37;1.75;;;1.30;;
52035;SDS011;38046;49.448;32.074;2022-10-14T09:16:19;1.95;;;1.10;;
52035;SDS011;38046;49.448;32.074;2022-10-14T09:18:58;1.63;;;1.52;;
52035;SDS011;38046;49.448;32.074;2022-10-14T09:21:26;1.45;;;1.35;;
52035;SDS011;38046;49.448;32.074;2022-10-14T09:23:57;1.65;;;1.55;;
52035;SDS011;38046;49.448;32.074;2022-10-14T09:26:30;1.95;;;1.23;;
52035;SDS011;38046;49.448;32.074;2022-10-14T09:29:07;1.50;;;1.40;;
52035;SDS011;38046;49.448;32.074;2022-10-14T09:31:44;1.40;;;1.30;;
52035;SDS011;38046;49.448;32.074;2022-10-14T09:34:12;2.15;;;1.27;;
52035;SDS011;38046;49.448;32.074;2022-10-14T09:36:43;1.25;;;1.20;;
52035;SDS011;38046;49.448;32.074;2022-10-14T09:39:10;1.75;;;1.65;;
52035;SDS011;38046;49.448;32.074;2022-10-14T09:41:37;1.30;;;1.20;;
52035;SDS011;38046;49.448;32.074;2022-10-14T09:46:52;1.40;;;1.30;;
52035;SDS011;38046;49.448;32.074;2022-10-14T09:49:42;1.33;;;1.17;;
52035;SDS011;38046;49.448;32.074;2022-10-14T09:52:21;0.98;;;0.98;;
52035;SDS011;38046;49.448;32.074;2022-10-14T09:54:58;1.10;;;1.10;;
52035;SDS011;38046;49.448;32.074;2022-10-14T09:57:25;1.42;;;1.33;;
52035;SDS011;38046;49.448;32.074;2022-10-14T09:59:55;2.80;;;1.40;;
52035;SDS011;38046;49.448;32.074;2022-10-14T10:02:38;1.50;;;1.40;;
52035;SDS011;38046;49.448;32.074;2022-10-14T10:05:22;1.45;;;1.35;;
52035;SDS011;38046;49.448;32.074;2022-10-14T10:08:00;1.40;;;1.30;;
52035;SDS011;38046;49.448;32.074;2022-10-14T10:10:26;1.52;;;1.42;;
52035;SDS011;38046;49.448;32.074;2022-10-14T10:12:54;1.35;;;1.30;;
52035;SDS011;38046;49.448;32.074;2022-10-14T10:15:21;1.13;;;1.02;;
52035;SDS011;38046;49.448;32.074;2022-10-14T10:17:47;0.80;;;0.80;;
52035;SDS011;38046;49.448;32.074;2022-10-14T10:22:40;1.05;;;1.00;;
52035;SDS011;38046;49.448;32.074;2022-10-14T10:27:33;1.13;;;1.10;;
52035;SDS011;38046;49.448;32.074;2022-10-14T10:32:43;1.20;;;1.20;;
52035;SDS011;38046;49.448;32.074;2022-10-14T10:35:15;1.17;;;1.10;;
52035;SDS011;38046;49.448;32.074;2022-10-14T10:43:39;0.77;;;0.77;;
52035;SDS011;38046;49.448;32.074;2022-10-14T10:57:12;0.98;;;0.90;;
52035;SDS011;38046;49.448;32.074;2022-10-14T10:59:48;1.40;;;1.30;;
52035;SDS011;38046;49.448;32.074;2022-10-14T11:05:24;1.10;;;1.10;;
52035;SDS011;38046;49.448;32.074;2022-10-14T11:11:10;0.88;;;0.88;;
52035;SDS011;38046;49.448;32.074;2022-10-14T11:16:55;0.90;;;0.90;;
52035;SDS011;38046;49.448;32.074;2022-10-14T11:28:02;2.00;;;1.13;;
52035;SDS011;38046;49.448;32.074;2022-10-14T11:39:25;1.02;;;1.02;;
52035;SDS011;38046;49.448;32.074;2022-10-14T11:42:06;1.00;;;1.00;;
52035;SDS011;38046;49.448;32.074;2022-10-14T11:44:48;1.00;;;1.00;;
52035;SDS011;38046;49.448;32.074;2022-10-14T11:47:31;1.52;;;1.42;;
52035;SDS011;38046;49.448;32.074;2022-10-14T11:50:03;1.02;;;1.02;;
52035;SDS011;38046;49.448;32.074;2022-10-14T11:52:37;1.58;;;1.48;;
52035;SDS011;38046;49.448;32.074;2022-10-14T11:55:25;0.95;;;0.95;;
52035;SDS011;38046;49.448;32.074;2022-10-14T11:58:02;1.17;;;1.08;;
52035;SDS011;38046;49.448;32.074;2022-10-14T12:00:34;1.25;;;1.20;;
52035;SDS011;38046;49.448;32.074;2022-10-14T12:16:49;1.42;;;1.17;;
52035;SDS011;38046;49.448;32.074;2022-10-14T12:19:19;0.98;;;0.95;;
52035;SDS011;38046;49.448;32.074;2022-10-14T12:21:50;1.23;;;0.90;;
52035;SDS011;38046;49.448;32.074;2022-10-14T12:24:34;1.02;;;1.02;;
52035;SDS011;38046;49.448;32.074;2022-10-14T12:27:03;0.90;;;0.90;;
52035;SDS011;38046;49.448;32.074;2022-10-14T12:29:39;1.15;;;1.05;;
52035;SDS011;38046;49.448;32.074;2022-10-14T12:32:14;0.90;;;0.90;;
52035;SDS011;38046;49.448;32.074;2022-10-14T12:34:43;0.80;;;0.80;;
52035;SDS011;38046;49.448;32.074;2022-10-14T12:39:50;1.08;;;0.98;;
52035;SDS011;38046;49.448;32.074;2022-10-14T12:42:17;0.80;;;0.80;;
52035;SDS011;38046;49.448;32.074;2022-10-14T12:44:50;1.15;;;1.10;;
52035;SDS011;38046;49.448;32.074;2022-10-14T12:47:35;1.80;;;1.30;;
52035;SDS011;38046;49.448;32.074;2022-10-14T12:50:05;1.27;;;1.17;;
52035;SDS011;38046;49.448;32.074;2022-10-14T12:52:58;1.30;;;1.23;;
52035;SDS011;38046;49.448;32.074;2022-10-14T12:55:27;1.08;;;1.05;;
52035;SDS011;38046;49.448;32.074;2022-10-14T12:57:56;0.90;;;0.90;;
52035;SDS011;38046;49.448;32.074;2022-10-14T13:02:53;0.80;;;0.77;;
52035;SDS011;38046;49.448;32.074;2022-10-14T13:05:39;0.90;;;0.90;;
52035;SDS011;38046;49.448;32.074;2022-10-14T13:18:55;0.80;;;0.80;;
52035;SDS011;38046;49.448;32.074;2022-10-14T13:21:28;0.82;;;0.82;;
52035;SDS011;38046;49.448;32.074;2022-10-14T13:23:57;0.60;;;0.60;;
52035;SDS011;38046;49.448;32.074;2022-10-14T13:34:28;0.88;;;0.88;;
52035;SDS011;38046;49.448;32.074;2022-10-14T13:39:57;1.00;;;1.00;;
52035;SDS011;38046;49.448;32.074;2022-10-14T13:42:58;0.70;;;0.70;;
52035;SDS011;38046;49.448;32.074;2022-10-14T13:45:37;1.15;;;1.05;;
52035;SDS011;38046;49.448;32.074;2022-10-14T13:48:04;0.88;;;0.88;;
52035;SDS011;38046;49.448;32.074;2022-10-14T13:50:34;0.90;;;0.90;;
52035;SDS011;38046;49.448;32.074;2022-10-14T13:53:21;0.85;;;0.85;;
52035;SDS011;38046;49.448;32.074;2022-10-14T13:55:48;1.38;;;0.90;;
52035;SDS011;38046;49.448;32.074;2022-10-14T13:58:20;0.77;;;0.77;;
52035;SDS011;38046;49.448;32.074;2022-10-14T14:03:17;0.90;;;0.90;;
52035;SDS011;38046;49.448;32.074;2022-10-14T14:05:49;1.38;;;0.90;;
52035;SDS011;38046;49.448;32.074;2022-10-14T14:09:03;0.90;;;0.90;;
52035;SDS011;38046;49.448;32.074;2022-10-14T14:11:07;0.88;;;0.88;;
52035;SDS011;38046;49.448;32.074;2022-10-14T14:13:47;0.77;;;0.77;;
52035;SDS011;38046;49.448;32.074;2022-10-14T14:16:17;0.63;;;0.63;;
52035;SDS011;38046;49.448;32.074;2022-10-14T14:18:47;0.70;;;0.70;;
52035;SDS011;38046;49.448;32.074;2022-10-14T14:21:14;0.77;;;0.77;;
52035;SDS011;38046;49.448;32.074;2022-10-14T14:23:55;0.95;;;0.90;;
52035;SDS011;38046;49.448;32.074;2022-10-14T14:26:25;1.00;;;1.00;;
52035;SDS011;38046;49.448;32.074;2022-10-14T14:29:02;0.60;;;0.60;;
52035;SDS011;38046;49.448;32.074;2022-10-14T14:31:39;0.90;;;0.90;;
52035;SDS011;38046;49.448;32.074;2022-10-14T14:34:10;0.50;;;0.50;;
52035;SDS011;38046;49.448;32.074;2022-10-14T14:36:41;0.90;;;0.90;;
52035;SDS011;38046;49.448;32.074;2022-10-14T14:39:16;0.80;;;0.80;;
52035;SDS011;38046;49.448;32.074;2022-10-14T14:41:50;0.60;;;0.60;;
52035;SDS011;38046;49.448;32.074;2022-10-14T14:44:20;0.90;;;0.90;;
52035;SDS011;38046;49.448;32.074;2022-10-14T14:46:49;0.68;;;0.60;;
52035;SDS011;38046;49.448;32.074;2022-10-14T14:49:17;0.90;;;0.90;;
52035;SDS011;38046;49.448;32.074;2022-10-14T14:51:47;0.85;;;0.85;;
52035;SDS011;38046;49.448;32.074;2022-10-14T14:54:15;1.00;;;0.85;;
52035;SDS011;38046;49.448;32.074;2022-10-14T14:56:44;0.77;;;0.77;;
52035;SDS011;38046;49.448;32.074;2022-10-14T15:01:59;1.13;;;1.10;;
52035;SDS011;38046;49.448;32.074;2022-10-14T15:04:27;1.42;;;1.33;;
52035;SDS011;38046;49.448;32.074;2022-10-14T15:07:02;1.40;;;1.30;;
52035;SDS011;38046;49.448;32.074;2022-10-14T15:09:48;1.23;;;1.10;;
52035;SDS011;38046;49.448;32.074;2022-10-14T15:12:18;0.90;;;0.90;;
52035;SDS011;38046;49.448;32.074;2022-10-14T15:14:47;1.40;;;1.30;;
52035;SDS011;38046;49.448;32.074;2022-10-14T15:17:27;1.42;;;1.33;;
52035;SDS011;38046;49.448;32.074;2022-10-14T15:20:23;0.98;;;0.98;;
52035;SDS011;38046;49.448;32.074;2022-10-14T15:22:44;1.20;;;1.10;;
52035;SDS011;38046;49.448;32.074;2022-10-14T15:27:50;1.48;;;1.38;;
52035;SDS011;38046;49.448;32.074;2022-10-14T15:33:11;1.38;;;1.20;;
52035;SDS011;38046;49.448;32.074;2022-10-14T15:35:42;2.03;;;1.42;;
52035;SDS011;38046;49.448;32.074;2022-10-14T15:38:10;1.80;;;1.70;;
52035;SDS011;38046;49.448;32.074;2022-10-14T15:40:37;1.55;;;1.42;;
52035;SDS011;38046;49.448;32.074;2022-10-14T15:43:08;2.17;;;1.80;;
52035;SDS011;38046;49.448;32.074;2022-10-14T15:45:41;2.00;;;1.75;;
52035;SDS011;38046;49.448;32.074;2022-10-14T15:48:12;1.92;;;1.83;;
52035;SDS011;38046;49.448;32.074;2022-10-14T15:50:43;2.20;;;1.85;;
52035;SDS011;38046;49.448;32.074;2022-10-14T15:53:12;2.95;;;2.20;;
52035;SDS011;38046;49.448;32.074;2022-10-14T15:55:38;3.58;;;2.30;;
52035;SDS011;38046;49.448;32.074;2022-10-14T15:58:04;2.58;;;2.15;;
52035;SDS011;38046;49.448;32.074;2022-10-14T16:00:29;3.55;;;2.67;;
52035;SDS011;38046;49.448;32.074;2022-10-14T16:02:56;4.20;;;3.13;;
52035;SDS011;38046;49.448;32.074;2022-10-14T16:05:22;5.78;;;3.75;;
52035;SDS011;38046;49.448;32.074;2022-10-14T16:07:53;6.00;;;3.85;;
52035;SDS011;38046;49.448;32.074;2022-10-14T16:10:22;6.38;;;3.83;;
52035;SDS011;38046;49.448;32.074;2022-10-14T16:12:48;5.60;;;3.60;;
52035;SDS011;38046;49.448;32.074;2022-10-14T16:16:00;5.63;;;3.53;;
52035;SDS011;38046;49.448;32.074;2022-10-14T16:18:03;5.55;;;3.20;;
52035;SDS011;38046;49.448;32.074;2022-10-14T16:20:29;4.28;;;3.13;;
52035;SDS011;38046;49.448;32.074;2022-10-14T16:22:55;8.15;;;5.20;;
52035;SDS011;38046;49.448;32.074;2022-10-14T16:25:29;11.10;;;6.43;;
52035;SDS011;38046;49.448;32.074;2022-10-14T16:27:59;10.35;;;7.25;;
52035;SDS011;38046;49.448;32.074;2022-10-14T16:30:25;9.55;;;6.63;;
52035;SDS011;38046;49.448;32.074;2022-10-14T16:32:52;7.65;;;6.03;;
52035;SDS011;38046;49.448;32.074;2022-10-14T16:35:18;8.10;;;6.18;;
52035;SDS011;38046;49.448;32.074;2022-10-14T16:37:44;8.75;;;5.97;;
52035;SDS011;38046;49.448;32.074;2022-10-14T16:40:10;8.80;;;6.07;;
52035;SDS011;38046;49.448;32.074;2022-10-14T16:42:36;9.73;;;7.13;;
52035;SDS011;38046;49.448;32.074;2022-10-14T16:45:02;7.57;;;5.53;;
52035;SDS011;38046;49.448;32.074;2022-10-14T16:47:28;7.43;;;5.10;;
52035;SDS011;38046;49.448;32.074;2022-10-14T16:49:54;6.35;;;4.65;;
52035;SDS011;38046;49.448;32.074;2022-10-14T16:52:21;8.18;;;4.75;;
52035;SDS011;38046;49.448;32.074;2022-10-14T16:54:47;5.97;;;3.78;;
52035;SDS011;38046;49.448;32.074;2022-10-14T16:57:13;6.63;;;4.53;;
52035;SDS011;38046;49.448;32.074;2022-10-14T16:59:39;10.40;;;5.10;;
52035;SDS011;38046;49.448;32.074;2022-10-14T17:02:05;8.23;;;5.32;;
52035;SDS011;38046;49.448;32.074;2022-10-14T17:04:35;8.55;;;5.70;;
52035;SDS011;38046;49.448;32.074;2022-10-14T17:07:01;11.30;;;6.45;;
52035;SDS011;38046;49.448;32.074;2022-10-14T17:09:32;9.25;;;6.40;;